Time;durP1;ratioP1;P1;durP2;ratioP2;P2;SDS_P1;SDS_P2;PMS_P1;PMS_P2;Temp;Humidity;BMP_temperature;BMP_pressure;BME280_temperature;BME280_humidity;BME280_pressure;Samples;Min_cycle;Max_cycle;Signal;HPM_P1;HPM_P2
2022/05/24 00:02:17;;;;;;;76.63;33.13;;;;;;;;;;4981607;28;20464;-70
2022/05/24 00:04:42;;;;;;;72.13;34.58;;;;;;;;;;4983056;28;20465;-73
2022/05/24 00:07:07;;;;;;;82.13;33.65;;;;;;;;;;4980735;28;20382;-71
2022/05/24 00:09:32;;;;;;;78.13;34.40;;;;;;;;;;4983742;28;20109;-69
2022/05/24 00:11:57;;;;;;;89.43;40.30;;;;;;;;;;4978168;28;20109;-72
2022/05/24 00:17:07;;;;;;;75.97;33.50;;;;;;;;;;4978934;28;20045;-70
2022/05/24 00:19:32;;;;;;;84.85;39.17;;;;;;;;;;4979775;28;20038;-72
2022/05/24 00:21:58;;;;;;;82.25;34.97;;;;;;;;;;4977828;28;20026;-73
2022/05/24 00:24:23;;;;;;;85.07;36.72;;;;;;;;;;4983378;28;20599;-70
2022/05/24 00:26:48;;;;;;;78.50;32.08;;;;;;;;;;4977971;28;20040;-70
2022/05/24 00:29:13;;;;;;;75.20;31.50;;;;;;;;;;4982814;28;20035;-70
2022/05/24 00:31:38;;;;;;;76.37;33.13;;;;;;;;;;4981751;28;20122;-72
2022/05/24 00:34:03;;;;;;;76.47;32.60;;;;;;;;;;4982414;28;20061;-70
2022/05/24 00:36:29;;;;;;;78.10;35.25;;;;;;;;;;4982888;28;20295;-72
2022/05/24 00:38:54;;;;;;;74.00;29.90;;;;;;;;;;4981528;28;20133;-70
2022/05/24 00:41:27;;;;;;;89.15;42.35;;;;;;;;;;4981878;28;20280;-72
2022/05/24 00:43:57;;;;;;;83.10;36.97;;;;;;;;;;4985288;28;20125;-73
2022/05/24 00:46:27;;;;;;;77.20;32.60;;;;;;;;;;4984293;28;20022;-70
2022/05/24 00:48:58;;;;;;;68.75;30.48;;;;;;;;;;4986461;28;20026;-71
2022/05/24 00:51:26;;;;;;;69.25;30.25;;;;;;;;;;4982928;28;20021;-71
2022/05/24 00:53:53;;;;;;;63.00;27.33;;;;;;;;;;4984110;28;20026;-71
2022/05/24 00:56:37;;;;;;;69.10;32.92;;;;;;;;;;4985241;28;20638;-71
2022/05/24 00:59:06;;;;;;;58.22;28.73;;;;;;;;;;4987501;28;20080;-71
2022/05/24 01:01:42;;;;;;;54.67;25.05;;;;;;;;;;4984635;28;20034;-70
2022/05/24 01:04:09;;;;;;;53.13;23.42;;;;;;;;;;4986247;28;20040;-71
2022/05/24 01:06:34;;;;;;;49.67;21.10;;;;;;;;;;4986324;28;20835;-72
2022/05/24 01:09:02;;;;;;;48.92;25.02;;;;;;;;;;4984449;28;20036;-72
2022/05/24 01:11:30;;;;;;;53.40;25.42;;;;;;;;;;4984895;28;20020;-70
2022/05/24 01:13:56;;;;;;;43.13;21.67;;;;;;;;;;4986582;28;20048;-72
2022/05/24 01:16:21;;;;;;;48.85;20.23;;;;;;;;;;4985639;28;20018;-72
2022/05/24 01:18:46;;;;;;;47.83;20.93;;;;;;;;;;4984884;28;20041;-70
2022/05/24 01:21:13;;;;;;;38.47;18.40;;;;;;;;;;4982649;28;20756;-70
2022/05/24 01:23:48;;;;;;;42.60;22.75;;;;;;;;;;4983762;28;20097;-72
2022/05/24 01:26:16;;;;;;;44.28;21.15;;;;;;;;;;4984792;28;20544;-70
2022/05/24 01:28:45;;;;;;;38.58;18.58;;;;;;;;;;4983231;28;20026;-71
2022/05/24 01:31:10;;;;;;;47.40;19.30;;;;;;;;;;4987482;28;20454;-70
2022/05/24 01:36:21;;;;;;;37.65;16.17;;;;;;;;;;4980652;28;20030;-72
2022/05/24 01:38:47;;;;;;;39.83;21.25;;;;;;;;;;4983728;28;20034;-71
2022/05/24 01:41:15;;;;;;;38.25;17.42;;;;;;;;;;4988713;28;20030;-70
2022/05/24 01:43:42;;;;;;;37.85;18.92;;;;;;;;;;4988981;28;20026;-72
2022/05/24 01:46:10;;;;;;;36.47;15.00;;;;;;;;;;4987238;28;20058;-73
2022/05/24 01:48:41;;;;;;;39.13;19.60;;;;;;;;;;4985177;28;20022;-73
2022/05/24 01:51:07;;;;;;;32.53;16.17;;;;;;;;;;4987055;28;20785;-72
2022/05/24 01:53:42;;;;;;;28.48;15.25;;;;;;;;;;4982942;28;20138;-70
2022/05/24 01:56:09;;;;;;;24.48;14.18;;;;;;;;;;4983965;28;20076;-70
2022/05/24 01:58:36;;;;;;;29.08;13.70;;;;;;;;;;4982389;28;20444;-71
2022/05/24 02:01:06;;;;;;;27.88;12.20;;;;;;;;;;4981588;28;20022;-69
2022/05/24 02:03:31;;;;;;;31.70;12.68;;;;;;;;;;4986633;28;20113;-71
2022/05/24 02:05:58;;;;;;;23.38;10.73;;;;;;;;;;4986018;28;20076;-71
2022/05/24 02:08:23;;;;;;;30.13;10.68;;;;;;;;;;4984234;28;20494;-71
2022/05/24 02:10:55;;;;;;;22.13;9.75;;;;;;;;;;4982009;28;20023;-71
2022/05/24 02:13:24;;;;;;;21.35;10.48;;;;;;;;;;4984008;28;20031;-75
2022/05/24 02:15:50;;;;;;;20.92;9.32;;;;;;;;;;4984263;28;20096;-72
2022/05/24 02:18:17;;;;;;;30.85;12.38;;;;;;;;;;4982220;28;20030;-73
2022/05/24 02:20:43;;;;;;;21.60;9.00;;;;;;;;;;4987573;28;20030;-71
2022/05/24 02:23:09;;;;;;;23.73;10.02;;;;;;;;;;4981566;28;20034;-72
2022/05/24 02:25:39;;;;;;;17.80;11.00;;;;;;;;;;4980827;28;20026;-72
2022/05/24 02:28:08;;;;;;;20.25;9.35;;;;;;;;;;4980981;28;20561;-70
2022/05/24 02:30:34;;;;;;;20.13;8.68;;;;;;;;;;4981531;28;20026;-71
2022/05/24 02:32:59;;;;;;;20.05;8.77;;;;;;;;;;4980628;28;20038;-70
2022/05/24 02:35:24;;;;;;;18.40;7.67;;;;;;;;;;4984072;28;20102;-71
2022/05/24 02:37:49;;;;;;;18.77;7.53;;;;;;;;;;4980121;28;20352;-72
2022/05/24 02:42:58;;;;;;;23.77;8.20;;;;;;;;;;4984109;28;20041;-71
2022/05/24 02:45:24;;;;;;;14.57;6.77;;;;;;;;;;4983718;28;20034;-70
2022/05/24 02:47:49;;;;;;;12.45;6.75;;;;;;;;;;4979104;28;20018;-69
2022/05/24 02:50:14;;;;;;;19.10;7.60;;;;;;;;;;4984584;28;20022;-71
2022/05/24 02:52:40;;;;;;;16.05;6.93;;;;;;;;;;4976397;28;20785;-71
2022/05/24 02:55:06;;;;;;;16.05;7.05;;;;;;;;;;4980570;28;20106;-70
2022/05/24 02:57:31;;;;;;;20.55;7.50;;;;;;;;;;4982214;28;20388;-70
2022/05/24 02:59:57;;;;;;;21.00;6.67;;;;;;;;;;4980059;28;20029;-70
2022/05/24 03:02:22;;;;;;;13.32;5.82;;;;;;;;;;4985769;28;20033;-70
2022/05/24 03:04:47;;;;;;;14.45;6.45;;;;;;;;;;4985362;28;20066;-69
2022/05/24 03:09:56;;;;;;;17.48;6.35;;;;;;;;;;4979798;28;20295;-71
2022/05/24 03:15:05;;;;;;;10.15;5.57;;;;;;;;;;4982486;28;20490;-72
2022/05/24 03:17:31;;;;;;;19.55;5.90;;;;;;;;;;4982432;28;20042;-71
2022/05/24 03:19:56;;;;;;;14.95;4.53;;;;;;;;;;4981185;28;20354;-69
2022/05/24 03:22:21;;;;;;;16.83;5.50;;;;;;;;;;4981918;28;20465;-73
2022/05/24 03:24:46;;;;;;;19.38;4.80;;;;;;;;;;4980953;28;20045;-74
2022/05/24 03:27:12;;;;;;;12.38;4.45;;;;;;;;;;4980908;28;20385;-71
2022/05/24 03:29:44;;;;;;;17.07;4.27;;;;;;;;;;4980832;28;20020;-70
2022/05/24 03:32:10;;;;;;;10.60;4.53;;;;;;;;;;4981845;28;20302;-72
2022/05/24 03:34:36;;;;;;;16.35;4.78;;;;;;;;;;4984420;28;20424;-71
2022/05/24 03:37:02;;;;;;;15.07;4.60;;;;;;;;;;4980211;28;20034;-73
2022/05/24 03:39:27;;;;;;;10.25;4.32;;;;;;;;;;4981825;28;20026;-70
2022/05/24 03:41:52;;;;;;;18.70;5.30;;;;;;;;;;4982701;28;20473;-74
2022/05/24 03:44:17;;;;;;;13.00;4.67;;;;;;;;;;4983612;28;20322;-72
2022/05/24 03:46:43;;;;;;;9.32;4.93;;;;;;;;;;4981738;28;20822;-70
2022/05/24 03:49:08;;;;;;;13.35;5.60;;;;;;;;;;4986815;28;20050;-71
2022/05/24 03:51:33;;;;;;;15.85;4.88;;;;;;;;;;4985026;28;20053;-70
2022/05/24 03:53:58;;;;;;;16.27;5.37;;;;;;;;;;4985117;28;20056;-74
2022/05/24 03:56:24;;;;;;;10.97;4.50;;;;;;;;;;4984820;28;20268;-72
2022/05/24 03:58:49;;;;;;;14.73;5.35;;;;;;;;;;4984924;28;20683;-70
2022/05/24 04:01:14;;;;;;;14.68;4.80;;;;;;;;;;4985506;28;20440;-72
2022/05/24 04:03:39;;;;;;;9.80;5.40;;;;;;;;;;4984704;28;20045;-70
2022/05/24 04:06:05;;;;;;;14.47;5.73;;;;;;;;;;4985867;28;20645;-72
2022/05/24 04:08:30;;;;;;;19.48;5.82;;;;;;;;;;4993056;28;20306;-68
2022/05/24 04:11:06;;;;;;;15.15;5.20;;;;;;;;;;4984500;28;20034;-70
2022/05/24 04:13:31;;;;;;;20.25;6.60;;;;;;;;;;4981999;28;20026;-71
2022/05/24 04:15:57;;;;;;;18.35;6.78;;;;;;;;;;4981195;28;20535;-70
2022/05/24 04:18:22;;;;;;;17.42;8.05;;;;;;;;;;4983867;28;20526;-72
2022/05/24 04:20:47;;;;;;;17.65;7.20;;;;;;;;;;4982552;28;20033;-71
2022/05/24 04:23:14;;;;;;;24.30;9.93;;;;;;;;;;4980666;28;20042;-70
2022/05/24 04:25:39;;;;;;;18.58;7.40;;;;;;;;;;4984596;28;20340;-71
2022/05/24 04:28:04;;;;;;;20.83;9.40;;;;;;;;;;4986694;28;20019;-71
2022/05/24 04:30:30;;;;;;;20.70;8.35;;;;;;;;;;4980862;28;20027;-73
2022/05/24 04:32:55;;;;;;;25.92;11.00;;;;;;;;;;4985277;28;20022;-72
2022/05/24 04:35:20;;;;;;;19.23;8.63;;;;;;;;;;4985340;28;20405;-70
2022/05/24 04:37:45;;;;;;;20.20;9.80;;;;;;;;;;4981775;28;20030;-70
2022/05/24 04:40:11;;;;;;;21.92;9.93;;;;;;;;;;4980411;28;20786;-70
2022/05/24 04:42:36;;;;;;;21.05;9.43;;;;;;;;;;4981775;28;20022;-71
2022/05/24 04:45:06;;;;;;;18.92;9.65;;;;;;;;;;4984014;28;20465;-73
2022/05/24 04:47:31;;;;;;;22.42;9.98;;;;;;;;;;4980503;28;20029;-73
2022/05/24 04:49:58;;;;;;;18.55;9.32;;;;;;;;;;4980057;28;20026;-72
2022/05/24 04:52:25;;;;;;;22.85;9.50;;;;;;;;;;4984035;28;20186;-73
2022/05/24 04:54:51;;;;;;;18.95;8.20;;;;;;;;;;4987450;28;20153;-72
2022/05/24 04:57:16;;;;;;;22.83;9.90;;;;;;;;;;4977111;28;20105;-74
2022/05/24 04:59:42;;;;;;;22.33;8.45;;;;;;;;;;4978639;28;20461;-71
2022/05/24 05:02:07;;;;;;;17.48;8.73;;;;;;;;;;4982603;28;20088;-74
2022/05/24 05:04:33;;;;;;;23.27;9.45;;;;;;;;;;4980765;28;20026;-75
2022/05/24 05:06:58;;;;;;;20.50;9.63;;;;;;;;;;4982384;28;22107;-72
2022/05/24 05:09:23;;;;;;;21.07;10.93;;;;;;;;;;4982789;28;20465;-69
2022/05/24 05:11:48;;;;;;;20.17;8.65;;;;;;;;;;4981086;28;20276;-72
2022/05/24 05:14:13;;;;;;;19.05;9.02;;;;;;;;;;4982372;28;20456;-71
2022/05/24 05:16:39;;;;;;;24.67;10.43;;;;;;;;;;4980761;28;20111;-71
2022/05/24 05:19:05;;;;;;;23.77;10.02;;;;;;;;;;4980887;28;20272;-71
2022/05/24 05:21:31;;;;;;;19.83;11.23;;;;;;;;;;4983634;28;20030;-79
2022/05/24 05:23:57;;;;;;;21.30;10.02;;;;;;;;;;4980705;28;20042;-72
2022/05/24 05:26:22;;;;;;;20.00;9.38;;;;;;;;;;4981921;28;20069;-71
2022/05/24 05:28:47;;;;;;;19.08;9.85;;;;;;;;;;4984031;28;20105;-72
2022/05/24 05:31:27;;;;;;;13.57;7.40;;;;;;;;;;4986039;28;20084;-71
2022/05/24 05:33:53;;;;;;;17.00;7.85;;;;;;;;;;5002972;28;20031;-72
2022/05/24 05:36:19;;;;;;;14.93;7.15;;;;;;;;;;4985315;28;20018;-69
2022/05/24 05:38:47;;;;;;;19.27;9.10;;;;;;;;;;4983518;28;20066;-71
2022/05/24 05:41:14;;;;;;;14.48;8.60;;;;;;;;;;4988913;28;20469;-69
2022/05/24 05:43:39;;;;;;;15.23;6.95;;;;;;;;;;4989403;28;20397;-70
2022/05/24 05:46:04;;;;;;;16.92;7.18;;;;;;;;;;4986174;28;20105;-70
2022/05/24 05:48:30;;;;;;;18.35;7.93;;;;;;;;;;4985718;28;20104;-70
2022/05/24 05:50:55;;;;;;;18.45;6.72;;;;;;;;;;4983573;28;20047;-71
2022/05/24 05:53:20;;;;;;;21.25;7.45;;;;;;;;;;4986007;28;20026;-69
2022/05/24 05:55:45;;;;;;;18.85;7.72;;;;;;;;;;4978175;28;20354;-70
2022/05/24 05:58:11;;;;;;;13.27;7.45;;;;;;;;;;4980678;28;20528;-72
2022/05/24 06:00:37;;;;;;;14.73;6.03;;;;;;;;;;4985525;28;20030;-71
2022/05/24 06:03:02;;;;;;;14.13;6.28;;;;;;;;;;4989187;28;20413;-72
2022/05/24 06:05:27;;;;;;;19.60;7.82;;;;;;;;;;4985125;28;20027;-70
2022/05/24 06:07:56;;;;;;;16.13;6.47;;;;;;;;;;4988946;28;20026;-77
2022/05/24 06:10:22;;;;;;;17.42;6.38;;;;;;;;;;4983298;28;20023;-78
2022/05/24 06:12:47;;;;;;;18.58;7.07;;;;;;;;;;4987245;28;20287;-80
2022/05/24 06:15:12;;;;;;;12.82;7.18;;;;;;;;;;4986598;28;20057;-78
2022/05/24 06:17:44;;;;;;;12.15;5.85;;;;;;;;;;4984529;28;20033;-82
2022/05/24 06:20:09;;;;;;;14.05;6.40;;;;;;;;;;4982740;28;20034;-79
2022/05/24 06:22:34;;;;;;;17.77;5.65;;;;;;;;;;4988436;28;20021;-77
2022/05/24 06:25:00;;;;;;;8.15;4.50;;;;;;;;;;4989452;28;20436;-78
2022/05/24 06:27:25;;;;;;;13.93;6.53;;;;;;;;;;4989195;28;20042;-76
2022/05/24 06:29:50;;;;;;;14.52;6.82;;;;;;;;;;4989127;28;20650;-76
2022/05/24 06:32:15;;;;;;;13.47;5.53;;;;;;;;;;4988554;28;20298;-81
2022/05/24 06:34:40;;;;;;;23.08;7.90;;;;;;;;;;4984602;28;20411;-76
2022/05/24 06:37:05;;;;;;;14.97;5.63;;;;;;;;;;4990309;28;20026;-79
2022/05/24 06:39:31;;;;;;;12.37;5.87;;;;;;;;;;4986623;28;20424;-77
2022/05/24 06:41:56;;;;;;;13.13;5.82;;;;;;;;;;4983361;28;20280;-86
2022/05/24 06:44:21;;;;;;;12.75;5.95;;;;;;;;;;4984992;28;20039;-80
2022/05/24 06:46:46;;;;;;;8.65;5.68;;;;;;;;;;4985507;28;20026;-77
2022/05/24 06:49:11;;;;;;;15.97;5.67;;;;;;;;;;4981961;28;20035;-77
2022/05/24 06:51:36;;;;;;;10.52;5.22;;;;;;;;;;4984252;28;20385;-76
2022/05/24 06:54:02;;;;;;;21.07;8.43;;;;;;;;;;4994691;28;20022;-77
2022/05/24 06:56:27;;;;;;;8.50;6.60;;;;;;;;;;4985048;28;20030;-76
2022/05/24 07:02:25;;;;;;;15.15;8.55;;;;;;;;;;4988782;28;20065;-76
2022/05/24 07:04:21;;;;;;;16.55;8.68;;;;;;;;;;4975623;28;20097;-80
2022/05/24 07:06:46;;;;;;;12.75;6.90;;;;;;;;;;4987424;28;20038;-78
2022/05/24 07:09:11;;;;;;;10.25;6.32;;;;;;;;;;4986597;28;20030;-76
2022/05/24 07:11:37;;;;;;;13.45;6.47;;;;;;;;;;4981370;28;20026;-75
2022/05/24 07:14:02;;;;;;;15.30;6.17;;;;;;;;;;4986826;28;20110;-79
2022/05/24 07:16:27;;;;;;;11.63;6.07;;;;;;;;;;4986082;28;20521;-76
2022/05/24 07:18:52;;;;;;;8.02;5.03;;;;;;;;;;4986912;28;20033;-76
2022/05/24 07:21:18;;;;;;;12.68;5.60;;;;;;;;;;4981206;28;20038;-81
2022/05/24 07:23:43;;;;;;;10.90;4.78;;;;;;;;;;4987122;28;20369;-82
2022/05/24 07:26:13;;;;;;;11.57;5.43;;;;;;;;;;4984715;28;20026;-76
2022/05/24 07:28:38;;;;;;;7.25;4.10;;;;;;;;;;4988112;28;20264;-75
2022/05/24 07:31:04;;;;;;;8.98;4.90;;;;;;;;;;4986734;28;20025;-77
2022/05/24 07:33:29;;;;;;;8.10;4.90;;;;;;;;;;4984409;28;20030;-74
2022/05/24 07:35:54;;;;;;;8.80;4.83;;;;;;;;;;4986699;28;20279;-77
2022/05/24 07:38:19;;;;;;;8.80;5.17;;;;;;;;;;4986371;28;20272;-74
2022/05/24 07:46:13;;;;;;;10.45;4.97;;;;;;;;;;4987002;28;20829;-76
2022/05/24 07:48:39;;;;;;;8.00;5.70;;;;;;;;;;4983891;28;20397;-75
2022/05/24 07:51:04;;;;;;;8.50;4.97;;;;;;;;;;4985299;28;20421;-76
2022/05/24 07:53:30;;;;;;;10.50;6.70;;;;;;;;;;4988489;28;20038;-77
2022/05/24 07:55:56;;;;;;;7.93;6.03;;;;;;;;;;4985542;28;20031;-80
2022/05/24 07:58:21;;;;;;;14.00;6.50;;;;;;;;;;4985245;28;20385;-80
2022/05/24 08:00:47;;;;;;;7.22;6.53;;;;;;;;;;4986612;28;20080;-77
2022/05/24 08:03:12;;;;;;;9.55;6.72;;;;;;;;;;4982002;28;20057;-82
2022/05/24 08:05:37;;;;;;;11.05;7.70;;;;;;;;;;4984085;28;20479;-78
2022/05/24 08:08:03;;;;;;;14.30;8.45;;;;;;;;;;4991794;28;20110;-84
2022/05/24 08:10:29;;;;;;;12.90;7.68;;;;;;;;;;4978973;28;20026;-82
2022/05/24 08:12:54;;;;;;;8.27;7.20;;;;;;;;;;4984662;28;20030;-77
2022/05/24 08:15:20;;;;;;;11.02;8.40;;;;;;;;;;4993348;28;20022;-78
2022/05/24 08:17:45;;;;;;;14.27;7.72;;;;;;;;;;4984145;28;20322;-86
2022/05/24 08:20:11;;;;;;;10.30;7.90;;;;;;;;;;4983533;28;20033;-77
2022/05/24 08:22:37;;;;;;;14.65;9.32;;;;;;;;;;4985998;28;20024;-78
2022/05/24 08:25:02;;;;;;;12.02;9.38;;;;;;;;;;4985817;28;20758;-80
2022/05/24 08:27:27;;;;;;;15.77;10.23;;;;;;;;;;4986358;28;20157;-80
2022/05/24 08:29:53;;;;;;;12.07;8.63;;;;;;;;;;4985411;28;20018;-84
2022/05/24 08:32:18;;;;;;;16.08;10.70;;;;;;;;;;4982932;28;20025;-77
2022/05/24 08:34:44;;;;;;;11.05;8.27;;;;;;;;;;4985814;28;20117;-77
2022/05/24 08:37:10;;;;;;;11.65;9.15;;;;;;;;;;4983704;28;20030;-84
2022/05/24 08:39:35;;;;;;;13.63;9.60;;;;;;;;;;4986233;28;20532;-75
2022/05/24 08:42:20;;;;;;;8.80;7.90;;;;;;;;;;4983674;28;20315;-80
2022/05/24 08:50:42;;;;;;;14.35;10.30;;;;;;;;;;4990901;28;20041;-76
2022/05/24 08:53:10;;;;;;;11.45;10.15;;;;;;;;;;4986579;28;20030;-80
2022/05/24 08:55:36;;;;;;;13.93;9.00;;;;;;;;;;4984369;28;20347;-77
2022/05/24 08:58:01;;;;;;;10.63;7.18;;;;;;;;;;4983256;28;20038;-79
2022/05/24 09:00:32;;;;;;;12.82;7.10;;;;;;;;;;4984561;28;20042;-80
2022/05/24 09:02:58;;;;;;;7.10;6.35;;;;;;;;;;4985831;28;20026;-77
2022/05/24 09:05:33;;;;;;;9.60;7.03;;;;;;;;;;4988897;28;20018;-81
2022/05/24 09:08:07;;;;;;;8.95;8.05;;;;;;;;;;4989034;28;20440;-80
2022/05/24 09:10:44;;;;;;;9.82;7.00;;;;;;;;;;4984831;28;20470;-83
2022/05/24 09:13:28;;;;;;;11.57;6.55;;;;;;;;;;4987416;28;20113;-78
2022/05/24 09:16:01;;;;;;;10.52;8.40;;;;;;;;;;4991081;28;20029;-77
2022/05/24 09:18:34;;;;;;;9.02;7.65;;;;;;;;;;4987559;28;20524;-82
2022/05/24 09:20:59;;;;;;;7.93;7.10;;;;;;;;;;4986705;28;20728;-74
2022/05/24 09:23:31;;;;;;;11.13;8.82;;;;;;;;;;4986087;28;20113;-80
2022/05/24 09:26:01;;;;;;;15.20;10.45;;;;;;;;;;4993706;28;20120;-81
2022/05/24 09:28:44;;;;;;;10.70;8.40;;;;;;;;;;4980933;28;20560;-77
2022/05/24 09:31:12;;;;;;;8.38;7.40;;;;;;;;;;4990224;28;21048;-76
2022/05/24 09:33:39;;;;;;;8.93;8.02;;;;;;;;;;4989281;28;20057;-78
2022/05/24 09:36:04;;;;;;;9.80;8.25;;;;;;;;;;4986357;28;20469;-75
2022/05/24 09:38:37;;;;;;;12.23;7.68;;;;;;;;;;4985232;28;20457;-78
2022/05/24 09:41:14;;;;;;;15.05;7.75;;;;;;;;;;4987781;28;20022;-74
2022/05/24 09:43:40;;;;;;;14.60;7.68;;;;;;;;;;4989212;28;20038;-78
2022/05/24 09:46:20;;;;;;;10.43;8.32;;;;;;;;;;4987614;28;20018;-77
2022/05/24 09:48:59;;;;;;;10.50;9.43;;;;;;;;;;4985687;28;20133;-74
2022/05/24 09:51:27;;;;;;;9.40;8.48;;;;;;;;;;4988340;28;20022;-78
2022/05/24 09:53:53;;;;;;;10.15;8.80;;;;;;;;;;4988934;28;20050;-76
2022/05/24 09:56:21;;;;;;;10.63;8.65;;;;;;;;;;4984452;28;20417;-78
2022/05/24 09:59:02;;;;;;;12.85;8.73;;;;;;;;;;4987928;28;20366;-77
2022/05/24 10:01:30;;;;;;;9.65;8.73;;;;;;;;;;4984517;28;20057;-79
2022/05/24 10:04:08;;;;;;;10.20;8.15;;;;;;;;;;4989557;28;20030;-78
2022/05/24 10:06:34;;;;;;;7.80;6.88;;;;;;;;;;4986747;28;20037;-76
2022/05/24 10:09:00;;;;;;;9.88;7.05;;;;;;;;;;4988349;28;20026;-76
2022/05/24 10:11:37;;;;;;;9.05;5.97;;;;;;;;;;4988268;28;20027;-79
2022/05/24 10:14:04;;;;;;;9.85;6.22;;;;;;;;;;4987890;28;20113;-77
2022/05/24 10:16:34;;;;;;;8.65;6.65;;;;;;;;;;4984831;28;20296;-75
2022/05/24 10:18:59;;;;;;;10.15;6.82;;;;;;;;;;4987978;28;20056;-73
2022/05/24 10:21:24;;;;;;;11.00;7.32;;;;;;;;;;4988659;28;20105;-77
2022/05/24 10:24:13;;;;;;;8.67;6.40;;;;;;;;;;4988681;28;20027;-76
2022/05/24 10:27:01;;;;;;;8.77;6.20;;;;;;;;;;4985766;28;20272;-77
2022/05/24 10:29:43;;;;;;;6.57;5.97;;;;;;;;;;4982516;28;20139;-77
2022/05/24 10:38:18;;;;;;;6.65;5.95;;;;;;;;;;4986594;28;20025;-73
2022/05/24 10:40:48;;;;;;;5.78;5.07;;;;;;;;;;4985376;28;20029;-75
2022/05/24 10:43:29;;;;;;;4.32;3.85;;;;;;;;;;4982391;28;20929;-77
2022/05/24 10:46:01;;;;;;;5.40;3.72;;;;;;;;;;4983653;28;20121;-77
2022/05/24 10:48:41;;;;;;;3.85;2.75;;;;;;;;;;4986358;28;20418;-75
2022/05/24 10:51:23;;;;;;;0.93;0.93;;;;;;;;;;4982787;28;20490;-79
2022/05/24 10:53:52;;;;;;;1.40;1.23;;;;;;;;;;4991408;28;20021;-78
2022/05/24 10:56:26;;;;;;;1.52;1.40;;;;;;;;;;4983428;28;20022;-76
2022/05/24 10:58:52;;;;;;;2.70;1.77;;;;;;;;;;4987165;28;20026;-77
2022/05/24 11:01:27;;;;;;;2.20;1.63;;;;;;;;;;4985072;28;20023;-76
2022/05/24 11:03:54;;;;;;;3.67;2.10;;;;;;;;;;4988776;28;20034;-78
2022/05/24 11:06:44;;;;;;;1.95;1.75;;;;;;;;;;4983312;28;20088;-76
2022/05/24 11:09:11;;;;;;;2.25;1.50;;;;;;;;;;4984078;28;20054;-75
2022/05/24 11:11:50;;;;;;;2.47;1.73;;;;;;;;;;4993074;28;20014;-75
2022/05/24 11:14:15;;;;;;;2.10;1.90;;;;;;;;;;4986848;28;20049;-79
2022/05/24 11:16:46;;;;;;;2.40;1.98;;;;;;;;;;4981010;28;20023;-76
2022/05/24 11:19:41;;;;;;;2.55;1.70;;;;;;;;;;4984626;28;20046;-77
2022/05/24 11:22:06;;;;;;;5.05;1.75;;;;;;;;;;4982403;28;20035;-81
2022/05/24 11:24:40;;;;;;;2.50;1.73;;;;;;;;;;4985355;28;20061;-76
2022/05/24 11:27:06;;;;;;;4.60;1.35;;;;;;;;;;4985463;28;20023;-79
2022/05/24 11:29:47;;;;;;;1.75;1.40;;;;;;;;;;4986209;28;20045;-78
2022/05/24 11:32:16;;;;;;;2.13;1.30;;;;;;;;;;4990800;28;20023;-79
2022/05/24 11:34:55;;;;;;;1.00;1.00;;;;;;;;;;4988512;28;20030;-76
2022/05/24 11:37:23;;;;;;;2.97;1.73;;;;;;;;;;4986777;28;20034;-78
2022/05/24 11:39:48;;;;;;;1.70;1.60;;;;;;;;;;4986486;28;20496;-76
2022/05/24 11:42:22;;;;;;;2.90;1.73;;;;;;;;;;4988437;28;20069;-78
2022/05/24 11:44:48;;;;;;;4.28;1.83;;;;;;;;;;4985070;28;20412;-80
2022/05/24 11:47:32;;;;;;;2.20;2.00;;;;;;;;;;4982577;28;20030;-75
2022/05/24 11:49:59;;;;;;;5.35;2.10;;;;;;;;;;4979346;28;20125;-77
2022/05/24 11:52:43;;;;;;;2.35;2.00;;;;;;;;;;4983379;28;20030;-74
2022/05/24 11:55:08;;;;;;;1.73;1.60;;;;;;;;;;4987227;28;20389;-80
2022/05/24 11:57:42;;;;;;;4.85;1.30;;;;;;;;;;4986339;28;20548;-81
2022/05/24 12:00:09;;;;;;;4.75;1.40;;;;;;;;;;4986063;28;20042;-79
2022/05/24 12:07:54;;;;;;;3.15;1.70;;;;;;;;;;4987966;28;20033;-78
2022/05/24 12:08:32;;;;;;;2.78;1.40;;;;;;;;;;4992207;28;20045;-80
2022/05/24 12:11:06;;;;;;;1.75;1.50;;;;;;;;;;4976107;28;20532;-78
2022/05/24 12:13:38;;;;;;;3.60;2.03;;;;;;;;;;4985945;28;20066;-75
2022/05/24 12:16:05;;;;;;;2.85;2.05;;;;;;;;;;4995865;28;20409;-75
2022/05/24 12:18:42;;;;;;;3.97;2.15;;;;;;;;;;4986063;28;20045;-74
2022/05/24 12:21:07;;;;;;;2.10;1.98;;;;;;;;;;4985362;28;20034;-77
2022/05/24 12:23:37;;;;;;;2.85;2.30;;;;;;;;;;4981354;28;20069;-82
2022/05/24 12:26:12;;;;;;;3.90;2.45;;;;;;;;;;4983032;28;20018;-78
2022/05/24 12:28:37;;;;;;;3.70;2.00;;;;;;;;;;4981920;28;20021;-78
2022/05/24 12:31:17;;;;;;;2.33;1.50;;;;;;;;;;4979679;28;20018;-76
2022/05/24 12:33:47;;;;;;;2.70;1.40;;;;;;;;;;4978903;28;20102;-77
2022/05/24 12:36:22;;;;;;;1.70;1.20;;;;;;;;;;4983029;28;20431;-76
2022/05/24 12:39:11;;;;;;;2.75;1.40;;;;;;;;;;4984283;28;20029;-77
2022/05/24 12:41:43;;;;;;;1.75;1.25;;;;;;;;;;4971528;28;20133;-77
2022/05/24 12:44:15;;;;;;;1.30;1.17;;;;;;;;;;4986962;28;20057;-75
2022/05/24 12:46:41;;;;;;;1.50;1.35;;;;;;;;;;4981991;28;20032;-76
2022/05/24 12:49:19;;;;;;;1.83;1.20;;;;;;;;;;4984345;28;20030;-76
2022/05/24 12:51:44;;;;;;;3.53;1.30;;;;;;;;;;4983063;28;20022;-75
2022/05/24 12:54:10;;;;;;;1.67;1.20;;;;;;;;;;4984259;28;20366;-76
2022/05/24 12:56:35;;;;;;;1.45;1.35;;;;;;;;;;4981860;28;20276;-76
2022/05/24 12:59:09;;;;;;;1.73;1.63;;;;;;;;;;4988156;28;20029;-76
2022/05/24 13:01:34;;;;;;;;;;;;;;;;;;4985792;28;20030;-77
2022/05/24 13:04:14;;;;;;;2.10;1.20;;;;;;;;;;4987896;28;19960;-75
2022/05/24 13:06:40;;;;;;;1.30;1.20;;;;;;;;;;4982095;28;20023;-80
2022/05/24 13:09:11;;;;;;;1.25;1.08;;;;;;;;;;4985015;28;20060;-75
2022/05/24 13:11:36;;;;;;;1.55;1.33;;;;;;;;;;4984752;28;20022;-79
2022/05/24 13:14:01;;;;;;;3.30;1.40;;;;;;;;;;4980319;28;20034;-77
2022/05/24 13:16:27;;;;;;;2.55;1.73;;;;;;;;;;4983406;28;20287;-77
2022/05/24 13:18:53;;;;;;;2.13;1.00;;;;;;;;;;4984918;28;20431;-75
2022/05/24 13:21:22;;;;;;;1.45;1.08;;;;;;;;;;4982894;28;20432;-78
2022/05/24 13:23:47;;;;;;;1.70;1.10;;;;;;;;;;4984347;28;20023;-81
2022/05/24 13:26:14;;;;;;;2.05;1.10;;;;;;;;;;4981742;28;20026;-78
2022/05/24 13:28:42;;;;;;;1.60;1.23;;;;;;;;;;4985127;28;20137;-77
2022/05/24 13:34:01;;;;;;;4.82;1.38;;;;;;;;;;4983143;28;20085;-77
2022/05/24 13:36:29;;;;;;;1.17;1.10;;;;;;;;;;4984577;28;20346;-76
2022/05/24 13:39:03;;;;;;;1.00;0.90;;;;;;;;;;4979770;28;20022;-77
2022/05/24 13:41:35;;;;;;;1.15;1.15;;;;;;;;;;4986660;28;20026;-78
2022/05/24 13:44:09;;;;;;;1.90;0.80;;;;;;;;;;4981384;28;20496;-76
2022/05/24 13:46:48;;;;;;;2.47;1.23;;;;;;;;;;4985203;28;20328;-75
2022/05/24 13:49:29;;;;;;;0.90;0.90;;;;;;;;;;4977912;28;20025;-77
2022/05/24 13:52:10;;;;;;;2.28;1.25;;;;;;;;;;4987034;28;20019;-77
2022/05/24 13:54:37;;;;;;;1.27;1.23;;;;;;;;;;4977576;28;20366;-76
2022/05/24 13:57:06;;;;;;;1.58;1.48;;;;;;;;;;4987215;28;20026;-77
2022/05/24 13:59:31;;;;;;;1.27;1.20;;;;;;;;;;4989887;28;20030;-76
2022/05/24 14:02:06;;;;;;;1.02;0.90;;;;;;;;;;4991590;28;20109;-75
2022/05/24 14:04:36;;;;;;;2.03;1.00;;;;;;;;;;4991573;28;20489;-74
2022/05/24 14:07:01;;;;;;;1.25;1.10;;;;;;;;;;4992469;28;20239;-77
2022/05/24 14:09:28;;;;;;;0.87;0.87;;;;;;;;;;4987103;28;20014;-76
2022/05/24 14:11:57;;;;;;;0.85;0.85;;;;;;;;;;4987320;28;20145;-75
2022/05/24 14:14:23;;;;;;;0.80;0.80;;;;;;;;;;4985264;28;20022;-75
2022/05/24 14:16:49;;;;;;;1.45;0.90;;;;;;;;;;4984715;28;20120;-76
2022/05/24 14:19:15;;;;;;;1.20;0.90;;;;;;;;;;4984370;28;20030;-80
2022/05/24 14:21:41;;;;;;;0.98;0.88;;;;;;;;;;4987201;28;20133;-78
2022/05/24 14:24:12;;;;;;;0.68;0.68;;;;;;;;;;4988067;28;20030;-76
2022/05/24 14:26:37;;;;;;;0.73;0.70;;;;;;;;;;4985838;28;20030;-75
2022/05/24 14:29:03;;;;;;;0.93;0.70;;;;;;;;;;4986866;28;20417;-75
2022/05/24 14:31:28;;;;;;;1.60;1.50;;;;;;;;;;4989946;28;20065;-74
2022/05/24 14:33:53;;;;;;;2.37;2.10;;;;;;;;;;4987099;28;20037;-76
2022/05/24 14:36:18;;;;;;;2.20;1.98;;;;;;;;;;4986511;28;20280;-74
2022/05/24 14:38:46;;;;;;;2.93;2.10;;;;;;;;;;4988137;28;20394;-76
2022/05/24 14:41:17;;;;;;;2.35;1.83;;;;;;;;;;4986850;28;20089;-74
2022/05/24 14:43:44;;;;;;;2.00;1.90;;;;;;;;;;4988272;28;20037;-75
2022/05/24 14:46:09;;;;;;;1.80;1.70;;;;;;;;;;4988439;28;20420;-71
2022/05/24 14:48:34;;;;;;;2.15;1.40;;;;;;;;;;4981482;28;20511;-75
2022/05/24 14:50:59;;;;;;;1.70;1.60;;;;;;;;;;4980541;28;20076;-72
2022/05/24 14:53:25;;;;;;;2.42;1.58;;;;;;;;;;4984346;28;20474;-75
2022/05/24 14:55:50;;;;;;;2.13;1.88;;;;;;;;;;4987433;28;20030;-76
2022/05/24 14:58:15;;;;;;;2.47;1.50;;;;;;;;;;4986623;28;20864;-74
2022/05/24 15:00:40;;;;;;;3.30;1.80;;;;;;;;;;4987518;28;20030;-77
2022/05/24 15:03:06;;;;;;;4.33;1.90;;;;;;;;;;4987853;28;20031;-75
2022/05/24 15:05:33;;;;;;;1.73;1.63;;;;;;;;;;4981520;28;20113;-74
2022/05/24 15:16:12;;;;;;;1.65;1.55;;;;;;;;;;4985609;28;20033;-79
2022/05/24 15:18:37;;;;;;;1.83;1.73;;;;;;;;;;4986300;28;20022;-77
2022/05/24 15:21:04;;;;;;;2.97;1.80;;;;;;;;;;4984969;28;20050;-74
2022/05/24 15:23:30;;;;;;;2.25;2.03;;;;;;;;;;4992310;28;20022;-76
2022/05/24 15:25:57;;;;;;;1.90;1.80;;;;;;;;;;4994217;28;20026;-76
2022/05/24 15:28:25;;;;;;;1.58;1.45;;;;;;;;;;4988032;28;20056;-75